Pearcy, Arkansas
Current Conditions -  °F | °C
As of 11:53 AM on Thursday 23 Oct 2014 (Local Time) from KHOT Reporting Station
Clear Clear  
Wind Chill: 61°   Ceiling: Unl
Heat Index: 61°   Visibility: 10mi
Dew Point: 45°   Wind: 0mph
Humidity: 56%   Direction: NA
Pressure: 30.22"   Gusts: NA
Location:  34.43°N, 93.29°W
Report Text: KHOT 231653Z AUTO 00000KT 10SM CLR 16/07 A3022 RMK AO2 SLP230 T01610072
Loading
Personal Weather Stations






























Interactive Weather Map New forecast layout! Learn more

10-Day Weather Forecast

Advertisements
Track Severe Weather on mobile